Weather History for St. Francis, KS

Change the Weather History Date:

Sunday, May 12, 2013

  Actual Average Record
Temperature  
Mean Temperature 64 °F -  
Max Temperature 84 °F 71 °F 84 °F (2013)
Min Temperature 45 °F 44 °F 32 °F (2014)
Growing Degree Days 14 (Base 50)    
Moisture  
Dew Point 38 °F    
Average Humidity 47    
Maximum Humidity 89    
Minimum Humidity 13    
Precipitation  
Precipitation 0.00 in - - ()
Sea Level Pressure  
Sea Level Pressure 30.12 in    
Wind  
Wind Speed 9 mph (SSE)    
Max Wind Speed 17 mph    
Max Gust Speed 23 mph    
Visibility 10 miles    
Events      
Averages and records for this station are not official NWS values.
T = Trace of Precipitation, MM = Missing Value Source: NWS Daily Summary

Daily Weather History Graph

Daily Weather History Graph

Search for Another Location

Airport:

Trip Planner

Search our weather history database for the weather conditions in past years. The results will help you decide how hot, cold, wet, or windy it might be!

Date:

Astronomy

May. 12, 2013 Rise Set
Actual Time 6:35 AM CDT 8:52 PM CDT
Civil Twilight 6:04 AM CDT 9:22 PM CDT
Nautical Twilight 5:27 AM CDT 10:00 PM CDT
Astronomical Twilight 4:46 AM CDT 10:41 PM CDT
Moon 8:31 AM CDT (5/12) 11:20 PM CDT (5/12)
Length of Visible Light 15h 18m
Length of Day
14h 17m
Waxing Crescent, 7% of the Moon is Illuminated
May 12
Waxing Crescent
May 17
First Quarter
May 24
Full
May 31
Last Quarter
Jun 8
New

Hourly Weather History & Observations

Time (CDT) Temp. Windchill Dew Point Humidity Pressure Visibility Wind Dir Wind Speed Gust Speed Precip Events Conditions
12:15 AM 49.6 °F - 39.7 °F 69% 30.26 in 10.0 mi Calm Calm - N/A   Scattered Clouds
12:35 AM 49.3 °F - 41.0 °F 73% 30.25 in 10.0 mi South 6.9 mph - N/A   Clear
12:55 AM 47.7 °F - 41.4 °F 79% 30.24 in 10.0 mi South 10.4 mph - N/A   Clear
1:15 AM 49.1 °F - 43.0 °F 79% 30.24 in 10.0 mi South 11.5 mph - N/A   Clear
1:35 AM 49.6 °F - 43.7 °F 80% 30.23 in 10.0 mi South 11.5 mph - N/A   Clear
1:55 AM 49.1 °F - 43.2 °F 80% 30.21 in 10.0 mi South 11.5 mph - N/A   Clear
2:15 AM 47.3 °F - 42.3 °F 83% 30.21 in 10.0 mi SW 8.1 mph - N/A   Clear
2:35 AM 46.4 °F 42.4 °F 41.9 °F 84% 30.21 in 10.0 mi SW 8.1 mph - N/A   Clear
2:55 AM 46.2 °F 41.7 °F 42.1 °F 85% 30.20 in 10.0 mi SSW 9.2 mph - N/A   Clear
3:15 AM 45.9 °F 42.3 °F 42.3 °F 87% 30.20 in 10.0 mi SW 6.9 mph - N/A   Clear
3:35 AM 46.0 °F 41.4 °F 43.0 °F 89% 30.19 in 10.0 mi SW 9.2 mph - N/A   Clear
4:15 AM 48.2 °F - 44.2 °F 86% 30.18 in 10.0 mi SSW 9.2 mph - N/A   Clear
4:35 AM 47.8 °F - 43.9 °F 86% 30.17 in 10.0 mi SSW 10.4 mph - N/A   Clear
4:55 AM 47.5 °F - 43.7 °F 87% 30.17 in 10.0 mi SW 9.2 mph - N/A   Scattered Clouds
5:15 AM 47.3 °F - 43.2 °F 86% 30.17 in 10.0 mi SW 9.2 mph - N/A   Scattered Clouds
5:35 AM 46.4 °F 42.4 °F 42.8 °F 87% 30.16 in 10.0 mi SW 8.1 mph - N/A   Clear
5:55 AM 46.0 °F 41.9 °F 42.6 °F 88% 30.15 in 10.0 mi SSW 8.1 mph - N/A   Clear
6:15 AM 46.0 °F 41.4 °F 42.8 °F 88% 30.14 in 10.0 mi SW 9.2 mph - N/A   Clear
6:35 AM 46.0 °F 41.9 °F 42.3 °F 87% 30.14 in 10.0 mi SW 8.1 mph - N/A   Clear
6:55 AM 45.9 °F 41.2 °F 42.6 °F 88% 30.14 in 10.0 mi SW 9.2 mph - N/A   Clear
7:15 AM 47.5 °F - 43.7 °F 87% 30.14 in 10.0 mi WSW 9.2 mph - N/A   Clear
7:35 AM 48.9 °F - 44.6 °F 85% 30.14 in 10.0 mi SW 9.2 mph - N/A   Clear
7:55 AM 51.1 °F - 45.3 °F 81% 30.14 in 10.0 mi SW 11.5 mph - N/A   Clear
8:15 AM 52.2 °F - 45.5 °F 78% 30.13 in 10.0 mi WSW 12.7 mph - N/A   Clear
8:35 AM 54.3 °F - 45.9 °F 73% 30.13 in 10.0 mi WSW 12.7 mph - N/A   Clear
8:55 AM 56.8 °F - 46.9 °F 69% 30.13 in 10.0 mi WSW 11.5 mph - N/A   Clear
9:15 AM 60.8 °F - 47.3 °F 61% 30.13 in 10.0 mi WSW 10.4 mph - N/A   Clear
9:35 AM 65.8 °F - 45.7 °F 48% 30.13 in 10.0 mi West 10.4 mph - N/A   Clear
9:55 AM 68.7 °F - 43.2 °F 40% 30.13 in 10.0 mi WNW 10.4 mph - N/A   Clear
10:15 AM 70.3 °F - 43.2 °F 37% 30.12 in 10.0 mi WNW 8.1 mph - N/A   Clear
10:35 AM 72.9 °F - 42.1 °F 33% 30.12 in 10.0 mi NNW 8.1 mph - N/A   Clear
10:55 AM 74.3 °F - 39.7 °F 29% 30.12 in 10.0 mi North 8.1 mph - N/A   Clear
11:15 AM 75.9 °F - 39.4 °F 27% 30.12 in 10.0 mi NE 5.8 mph - N/A   Clear
11:35 AM 77.2 °F - 36.9 °F 23% 30.12 in 10.0 mi NNW 12.7 mph - N/A   Clear
11:55 AM 78.1 °F - 36.7 °F 22% 30.12 in 10.0 mi NNW 12.7 mph - N/A   Clear
12:15 PM 77.5 °F - 37.9 °F 24% 30.12 in 10.0 mi North 10.4 mph 18.4 mph N/A   Clear
12:35 PM 78.8 °F - 35.6 °F 21% 30.12 in 10.0 mi North 13.8 mph 21.9 mph N/A   Clear
12:55 PM 79.2 °F - 37.8 °F 23% 30.12 in 10.0 mi NNE 11.5 mph 19.6 mph N/A   Clear
1:15 PM 79.0 °F - 36.9 °F 22% 30.12 in 10.0 mi NNE 16.1 mph - N/A   Clear
1:35 PM 80.1 °F - 37.2 °F 21% 30.12 in 10.0 mi NE 11.5 mph - N/A   Clear
1:55 PM 80.6 °F - 34.7 °F 19% 30.11 in 10.0 mi NNE 4.6 mph - N/A   Clear
2:15 PM 80.4 °F - 34.7 °F 19% 30.10 in 10.0 mi NNE 9.2 mph 18.4 mph N/A   Clear
2:35 PM 80.6 °F - 33.8 °F 18% 30.10 in 10.0 mi NE 8.1 mph 16.1 mph N/A   Clear
2:55 PM 81.5 °F - 32.4 °F 17% 30.10 in 10.0 mi NNW 10.4 mph - N/A   Clear
3:15 PM 81.1 °F - 31.1 °F 16% 30.09 in 10.0 mi NNW 10.4 mph 17.3 mph N/A   Scattered Clouds
3:35 PM 83.3 °F - 28.9 °F 14% 30.09 in 10.0 mi North 12.7 mph 23.0 mph N/A   Scattered Clouds
3:55 PM 84.2 °F - 30.2 °F 14% 30.09 in 10.0 mi NNE 8.1 mph 20.7 mph N/A   Scattered Clouds
4:15 PM 83.7 °F - 28.4 °F 13% 30.08 in 10.0 mi North 17.3 mph - N/A   Scattered Clouds
4:35 PM 83.3 °F - 27.3 °F 13% 30.08 in 10.0 mi NNE 12.7 mph 18.4 mph N/A   Scattered Clouds
4:55 PM 83.3 °F - 27.9 °F 13% 30.07 in 10.0 mi North 9.2 mph 19.6 mph N/A   Clear
5:15 PM 83.1 °F - 26.8 °F 13% 30.07 in 10.0 mi NNE 5.8 mph - N/A   Clear
5:35 PM 82.6 °F - 26.8 °F 13% 30.07 in 10.0 mi ENE 12.7 mph - N/A   Clear
5:55 PM 82.8 °F - 26.4 °F 13% 30.07 in 10.0 mi NNE 9.2 mph 17.3 mph N/A   Scattered Clouds
6:15 PM 82.0 °F - 26.6 °F 13% 30.06 in 10.0 mi NE 13.8 mph - N/A   Clear
6:35 PM 81.7 °F - 26.4 °F 13% 30.05 in 10.0 mi NE 8.1 mph - N/A   Clear
6:55 PM 81.5 °F - 26.1 °F 13% 30.05 in 10.0 mi NNE 5.8 mph - N/A   Clear
7:15 PM 80.6 °F - 26.6 °F 14% 30.05 in 10.0 mi NE 9.2 mph - N/A   Clear
7:35 PM 79.3 °F - 27.5 °F 15% 30.05 in 10.0 mi NE 8.1 mph - N/A   Clear
7:55 PM 76.6 °F - 30.0 °F 18% 30.05 in 10.0 mi ENE 6.9 mph - N/A   Clear
8:15 PM 72.0 °F - 33.3 °F 24% 30.05 in 10.0 mi East 5.8 mph - N/A   Clear
8:35 PM 69.3 °F - 34.9 °F 28% 30.05 in 10.0 mi East 8.1 mph - N/A   Clear
8:55 PM 64.0 °F - 39.6 °F 41% 30.05 in 10.0 mi SE 9.2 mph - N/A   Clear
9:15 PM 63.1 °F - 39.4 °F 42% 30.05 in 10.0 mi ESE 8.1 mph - N/A   Clear
9:35 PM 62.6 °F - 40.1 °F 44% 30.06 in 10.0 mi ESE 9.2 mph - N/A   Clear
9:55 PM 60.6 °F - 40.8 °F 48% 30.07 in 10.0 mi SE 10.4 mph - N/A   Clear
10:15 PM 59.7 °F - 40.6 °F 49% 30.07 in 10.0 mi SE 10.4 mph - N/A   Clear
10:35 PM 59.2 °F - 40.5 °F 50% 30.08 in 10.0 mi SE 10.4 mph - N/A   Clear
10:55 PM 59.4 °F - 39.9 °F 49% 30.08 in 10.0 mi SE 11.5 mph - N/A   Clear
11:15 PM 59.9 °F - 40.3 °F 48% 30.08 in 10.0 mi SE 11.5 mph - N/A   Clear
11:35 PM 61.7 °F - 40.6 °F 46% 30.07 in 10.0 mi SSE 15.0 mph - N/A   Clear
11:55 PM 62.1 °F - 40.1 °F 44% 30.07 in 10.0 mi SSE 16.1 mph - N/A   Clear